sensor_id;sensor_type;location;lat;lon;timestamp;temperature;humidity
6373;DHT22;3219;51.362;7.074;2023-05-10T00:00:22;13.70;99.90
6373;DHT22;3219;51.362;7.074;2023-05-10T00:02:49;14.20;99.90
6373;DHT22;3219;51.362;7.074;2023-05-10T00:05:16;13.90;99.90
6373;DHT22;3219;51.362;7.074;2023-05-10T00:07:44;14.20;99.90
6373;DHT22;3219;51.362;7.074;2023-05-10T00:10:11;14.50;99.90
6373;DHT22;3219;51.362;7.074;2023-05-10T00:12:38;14.10;99.90
6373;DHT22;3219;51.362;7.074;2023-05-10T00:15:06;14.10;99.90
6373;DHT22;3219;51.362;7.074;2023-05-10T00:17:33;14.10;99.90
6373;DHT22;3219;51.362;7.074;2023-05-10T00:20:02;14.10;99.90
6373;DHT22;3219;51.362;7.074;2023-05-10T00:22:30;14.10;99.90
6373;DHT22;3219;51.362;7.074;2023-05-10T00:24:58;14.10;99.90
6373;DHT22;3219;51.362;7.074;2023-05-10T00:27:25;14.10;99.90
6373;DHT22;3219;51.362;7.074;2023-05-10T00:29:52;13.90;99.90
6373;DHT22;3219;51.362;7.074;2023-05-10T00:32:19;14.10;99.90
6373;DHT22;3219;51.362;7.074;2023-05-10T00:34:46;14.10;99.90
6373;DHT22;3219;51.362;7.074;2023-05-10T00:39:40;14.80;99.90
6373;DHT22;3219;51.362;7.074;2023-05-10T00:42:08;14.30;99.90
6373;DHT22;3219;51.362;7.074;2023-05-10T00:47:03;14.00;99.90
6373;DHT22;3219;51.362;7.074;2023-05-10T00:49:30;14.10;99.90
6373;DHT22;3219;51.362;7.074;2023-05-10T00:51:57;14.10;99.90
6373;DHT22;3219;51.362;7.074;2023-05-10T00:54:24;14.10;99.90
6373;DHT22;3219;51.362;7.074;2023-05-10T00:56:51;14.10;99.90
6373;DHT22;3219;51.362;7.074;2023-05-10T00:59:19;14.40;99.90
6373;DHT22;3219;51.362;7.074;2023-05-10T01:01:47;14.10;99.90
6373;DHT22;3219;51.362;7.074;2023-05-10T01:04:14;14.10;99.90
6373;DHT22;3219;51.362;7.074;2023-05-10T01:06:42;14.10;99.90
6373;DHT22;3219;51.362;7.074;2023-05-10T01:09:09;14.10;99.90
6373;DHT22;3219;51.362;7.074;2023-05-10T01:11:38;13.70;99.90
6373;DHT22;3219;51.362;7.074;2023-05-10T01:16:38;14.00;99.90
6373;DHT22;3219;51.362;7.074;2023-05-10T01:19:10;14.10;99.90
6373;DHT22;3219;51.362;7.074;2023-05-10T01:21:43;14.10;99.90
6373;DHT22;3219;51.362;7.074;2023-05-10T01:24:49;14.10;99.90
6373;DHT22;3219;51.362;7.074;2023-05-10T01:33:35;13.60;99.90
6373;DHT22;3219;51.362;7.074;2023-05-10T01:36:11;13.90;99.90
6373;DHT22;3219;51.362;7.074;2023-05-10T01:38:42;14.10;99.90
6373;DHT22;3219;51.362;7.074;2023-05-10T01:41:16;14.10;99.90
6373;DHT22;3219;51.362;7.074;2023-05-10T01:43:51;14.00;99.90
6373;DHT22;3219;51.362;7.074;2023-05-10T01:46:26;14.10;99.90
6373;DHT22;3219;51.362;7.074;2023-05-10T01:48:57;14.10;99.90
6373;DHT22;3219;51.362;7.074;2023-05-10T01:51:29;14.00;99.90
6373;DHT22;3219;51.362;7.074;2023-05-10T01:58:58;14.00;99.90
6373;DHT22;3219;51.362;7.074;2023-05-10T02:01:27;14.10;99.90
6373;DHT22;3219;51.362;7.074;2023-05-10T02:03:55;14.10;99.90
6373;DHT22;3219;51.362;7.074;2023-05-10T02:08:52;13.90;99.90
6373;DHT22;3219;51.362;7.074;2023-05-10T02:13:49;13.90;99.90
6373;DHT22;3219;51.362;7.074;2023-05-10T02:16:18;14.10;99.90
6373;DHT22;3219;51.362;7.074;2023-05-10T02:18:50;14.00;99.90
6373;DHT22;3219;51.362;7.074;2023-05-10T02:23:50;13.80;99.90
6373;DHT22;3219;51.362;7.074;2023-05-10T02:26:18;14.00;99.90
6373;DHT22;3219;51.362;7.074;2023-05-10T02:28:47;13.90;99.90
6373;DHT22;3219;51.362;7.074;2023-05-10T02:31:15;13.90;99.90
6373;DHT22;3219;51.362;7.074;2023-05-10T02:43:39;13.80;99.90
6373;DHT22;3219;51.362;7.074;2023-05-10T02:46:07;13.80;99.90
6373;DHT22;3219;51.362;7.074;2023-05-10T02:48:33;13.80;99.90
6373;DHT22;3219;51.362;7.074;2023-05-10T02:51:04;13.80;99.90
6373;DHT22;3219;51.362;7.074;2023-05-10T02:53:33;13.80;99.90
6373;DHT22;3219;51.362;7.074;2023-05-10T02:56:09;13.80;99.90
6373;DHT22;3219;51.362;7.074;2023-05-10T02:58:38;13.80;99.90
6373;DHT22;3219;51.362;7.074;2023-05-10T03:01:05;13.80;99.90
6373;DHT22;3219;51.362;7.074;2023-05-10T03:03:33;13.80;99.90
6373;DHT22;3219;51.362;7.074;2023-05-10T03:05:59;13.70;99.90
6373;DHT22;3219;51.362;7.074;2023-05-10T03:08:26;13.70;99.90
6373;DHT22;3219;51.362;7.074;2023-05-10T03:11:05;13.70;99.90
6373;DHT22;3219;51.362;7.074;2023-05-10T03:13:39;13.70;99.90
6373;DHT22;3219;51.362;7.074;2023-05-10T03:16:12;13.70;99.90
6373;DHT22;3219;51.362;7.074;2023-05-10T03:18:44;13.70;99.90
6373;DHT22;3219;51.362;7.074;2023-05-10T03:21:14;13.70;99.90
6373;DHT22;3219;51.362;7.074;2023-05-10T03:23:46;13.60;99.90
6373;DHT22;3219;51.362;7.074;2023-05-10T03:26:20;13.60;99.90
6373;DHT22;3219;51.362;7.074;2023-05-10T03:28:47;13.60;99.90
6373;DHT22;3219;51.362;7.074;2023-05-10T03:31:14;13.60;99.90
6373;DHT22;3219;51.362;7.074;2023-05-10T03:33:46;13.60;99.90
6373;DHT22;3219;51.362;7.074;2023-05-10T03:36:13;13.80;99.90
6373;DHT22;3219;51.362;7.074;2023-05-10T03:38:40;13.70;99.90
6373;DHT22;3219;51.362;7.074;2023-05-10T03:41:07;13.60;99.90
6373;DHT22;3219;51.362;7.074;2023-05-10T03:43:35;13.50;99.90
6373;DHT22;3219;51.362;7.074;2023-05-10T03:46:02;13.60;99.90
6373;DHT22;3219;51.362;7.074;2023-05-10T03:48:29;13.60;99.90
6373;DHT22;3219;51.362;7.074;2023-05-10T03:50:56;13.60;99.90
6373;DHT22;3219;51.362;7.074;2023-05-10T03:53:22;13.60;99.90
6373;DHT22;3219;51.362;7.074;2023-05-10T03:55:49;13.50;99.90
6373;DHT22;3219;51.362;7.074;2023-05-10T03:58:16;13.60;99.90
6373;DHT22;3219;51.362;7.074;2023-05-10T04:00:45;13.30;99.90
6373;DHT22;3219;51.362;7.074;2023-05-10T04:03:12;13.60;99.90
6373;DHT22;3219;51.362;7.074;2023-05-10T04:05:38;13.60;99.90
6373;DHT22;3219;51.362;7.074;2023-05-10T04:08:06;14.20;99.90
6373;DHT22;3219;51.362;7.074;2023-05-10T04:10:32;13.70;99.90
6373;DHT22;3219;51.362;7.074;2023-05-10T04:12:59;13.70;99.90
6373;DHT22;3219;51.362;7.074;2023-05-10T04:15:26;13.60;99.90
6373;DHT22;3219;51.362;7.074;2023-05-10T04:17:54;13.70;99.90
6373;DHT22;3219;51.362;7.074;2023-05-10T04:20:21;13.50;99.90
6373;DHT22;3219;51.362;7.074;2023-05-10T04:22:47;13.60;99.90
6373;DHT22;3219;51.362;7.074;2023-05-10T04:25:14;13.60;99.90
6373;DHT22;3219;51.362;7.074;2023-05-10T04:27:41;13.60;99.90
6373;DHT22;3219;51.362;7.074;2023-05-10T04:30:08;13.70;99.90
6373;DHT22;3219;51.362;7.074;2023-05-10T04:32:36;13.70;99.90
6373;DHT22;3219;51.362;7.074;2023-05-10T04:35:04;13.70;99.90
6373;DHT22;3219;51.362;7.074;2023-05-10T04:37:31;13.70;99.90
6373;DHT22;3219;51.362;7.074;2023-05-10T04:39:58;13.80;99.90
6373;DHT22;3219;51.362;7.074;2023-05-10T04:42:26;13.70;99.90
6373;DHT22;3219;51.362;7.074;2023-05-10T04:44:52;14.20;99.90
6373;DHT22;3219;51.362;7.074;2023-05-10T04:47:19;13.70;99.90
6373;DHT22;3219;51.362;7.074;2023-05-10T04:49:46;13.80;99.90
6373;DHT22;3219;51.362;7.074;2023-05-10T04:52:14;13.80;99.90
6373;DHT22;3219;51.362;7.074;2023-05-10T04:54:42;13.80;99.90
6373;DHT22;3219;51.362;7.074;2023-05-10T04:57:09;13.70;99.90
6373;DHT22;3219;51.362;7.074;2023-05-10T04:59:36;13.60;99.90
6373;DHT22;3219;51.362;7.074;2023-05-10T05:02:03;14.30;99.90
6373;DHT22;3219;51.362;7.074;2023-05-10T05:04:30;13.80;99.90
6373;DHT22;3219;51.362;7.074;2023-05-10T05:06:57;13.40;99.90
6373;DHT22;3219;51.362;7.074;2023-05-10T05:09:25;13.70;99.90
6373;DHT22;3219;51.362;7.074;2023-05-10T05:11:51;13.80;99.90
6373;DHT22;3219;51.362;7.074;2023-05-10T05:14:18;14.20;99.90
6373;DHT22;3219;51.362;7.074;2023-05-10T05:16:46;13.60;99.90
6373;DHT22;3219;51.362;7.074;2023-05-10T05:19:13;13.00;99.90
6373;DHT22;3219;51.362;7.074;2023-05-10T05:21:39;13.60;99.90
6373;DHT22;3219;51.362;7.074;2023-05-10T05:24:06;13.80;99.90
6373;DHT22;3219;51.362;7.074;2023-05-10T05:26:35;13.80;99.90
6373;DHT22;3219;51.362;7.074;2023-05-10T05:29:02;13.70;99.90
6373;DHT22;3219;51.362;7.074;2023-05-10T05:33:57;13.80;99.90
6373;DHT22;3219;51.362;7.074;2023-05-10T05:38:51;14.00;99.90
6373;DHT22;3219;51.362;7.074;2023-05-10T05:41:17;14.30;99.90
6373;DHT22;3219;51.362;7.074;2023-05-10T05:43:45;13.90;99.90
6373;DHT22;3219;51.362;7.074;2023-05-10T05:46:12;13.80;99.90
6373;DHT22;3219;51.362;7.074;2023-05-10T05:48:39;13.90;99.90
6373;DHT22;3219;51.362;7.074;2023-05-10T05:51:06;13.90;99.90
6373;DHT22;3219;51.362;7.074;2023-05-10T05:53:32;14.30;99.90
6373;DHT22;3219;51.362;7.074;2023-05-10T05:58:29;13.50;99.90
6373;DHT22;3219;51.362;7.074;2023-05-10T06:00:57;14.10;99.90
6373;DHT22;3219;51.362;7.074;2023-05-10T06:03:25;14.20;99.90
6373;DHT22;3219;51.362;7.074;2023-05-10T06:05:52;14.50;99.90
6373;DHT22;3219;51.362;7.074;2023-05-10T06:08:21;14.30;99.90
6373;DHT22;3219;51.362;7.074;2023-05-10T06:10:48;14.40;99.90
6373;DHT22;3219;51.362;7.074;2023-05-10T06:15:42;14.50;99.90
6373;DHT22;3219;51.362;7.074;2023-05-10T06:20:38;14.40;99.90
6373;DHT22;3219;51.362;7.074;2023-05-10T06:23:05;14.60;99.90
6373;DHT22;3219;51.362;7.074;2023-05-10T06:25:31;14.60;99.90
6373;DHT22;3219;51.362;7.074;2023-05-10T06:30:26;14.50;99.90
6373;DHT22;3219;51.362;7.074;2023-05-10T06:32:54;14.50;99.90
6373;DHT22;3219;51.362;7.074;2023-05-10T06:42:48;14.50;99.90
6373;DHT22;3219;51.362;7.074;2023-05-10T06:45:15;14.50;99.90
6373;DHT22;3219;51.362;7.074;2023-05-10T06:52:39;14.30;99.90
6373;DHT22;3219;51.362;7.074;2023-05-10T06:55:06;14.50;99.90
6373;DHT22;3219;51.362;7.074;2023-05-10T06:57:33;14.60;99.90
6373;DHT22;3219;51.362;7.074;2023-05-10T07:02:29;14.60;99.90
6373;DHT22;3219;51.362;7.074;2023-05-10T07:04:56;14.80;99.90
6373;DHT22;3219;51.362;7.074;2023-05-10T07:09:51;14.70;99.90
6373;DHT22;3219;51.362;7.074;2023-05-10T07:12:18;14.90;99.90
6373;DHT22;3219;51.362;7.074;2023-05-10T07:14:45;14.90;99.90
6373;DHT22;3219;51.362;7.074;2023-05-10T07:17:12;14.80;99.90
6373;DHT22;3219;51.362;7.074;2023-05-10T07:19:38;14.80;99.90
6373;DHT22;3219;51.362;7.074;2023-05-10T07:22:05;14.70;99.90
6373;DHT22;3219;51.362;7.074;2023-05-10T07:24:32;14.70;99.90
6373;DHT22;3219;51.362;7.074;2023-05-10T07:27:01;14.60;99.90
6373;DHT22;3219;51.362;7.074;2023-05-10T07:29:27;14.60;99.90
6373;DHT22;3219;51.362;7.074;2023-05-10T07:31:55;14.60;99.90
6373;DHT22;3219;51.362;7.074;2023-05-10T07:34:21;14.60;99.90
6373;DHT22;3219;51.362;7.074;2023-05-10T07:36:48;14.60;99.90
6373;DHT22;3219;51.362;7.074;2023-05-10T07:39:15;14.60;99.90
6373;DHT22;3219;51.362;7.074;2023-05-10T07:41:42;14.60;99.90
6373;DHT22;3219;51.362;7.074;2023-05-10T07:44:10;14.70;99.90
6373;DHT22;3219;51.362;7.074;2023-05-10T07:46:37;14.60;99.90
6373;DHT22;3219;51.362;7.074;2023-05-10T07:49:04;14.60;99.90
6373;DHT22;3219;51.362;7.074;2023-05-10T07:51:30;14.70;99.90
6373;DHT22;3219;51.362;7.074;2023-05-10T07:53:57;14.70;99.90
6373;DHT22;3219;51.362;7.074;2023-05-10T07:56:25;14.80;99.90
6373;DHT22;3219;51.362;7.074;2023-05-10T07:58:55;14.90;99.90
6373;DHT22;3219;51.362;7.074;2023-05-10T08:01:23;15.00;99.90
6373;DHT22;3219;51.362;7.074;2023-05-10T08:03:50;15.20;99.90
6373;DHT22;3219;51.362;7.074;2023-05-10T08:06:19;15.30;99.90
6373;DHT22;3219;51.362;7.074;2023-05-10T08:08:45;15.30;99.90
6373;DHT22;3219;51.362;7.074;2023-05-10T08:11:16;15.40;99.90
6373;DHT22;3219;51.362;7.074;2023-05-10T08:13:43;15.40;99.90
6373;DHT22;3219;51.362;7.074;2023-05-10T08:18:39;15.40;99.90
6373;DHT22;3219;51.362;7.074;2023-05-10T08:21:06;15.50;99.90
6373;DHT22;3219;51.362;7.074;2023-05-10T08:23:33;15.60;99.90
6373;DHT22;3219;51.362;7.074;2023-05-10T08:26:00;15.70;99.90
6373;DHT22;3219;51.362;7.074;2023-05-10T08:28:26;15.60;99.90
6373;DHT22;3219;51.362;7.074;2023-05-10T08:30:53;15.60;99.90
6373;DHT22;3219;51.362;7.074;2023-05-10T08:33:20;15.60;99.90
6373;DHT22;3219;51.362;7.074;2023-05-10T08:35:48;15.70;99.90
6373;DHT22;3219;51.362;7.074;2023-05-10T08:38:15;15.80;99.90
6373;DHT22;3219;51.362;7.074;2023-05-10T08:40:43;16.00;99.90
6373;DHT22;3219;51.362;7.074;2023-05-10T08:43:11;16.10;99.90
6373;DHT22;3219;51.362;7.074;2023-05-10T08:45:40;16.20;99.90
6373;DHT22;3219;51.362;7.074;2023-05-10T08:48:07;16.30;99.90
6373;DHT22;3219;51.362;7.074;2023-05-10T08:50:36;16.30;99.90
6373;DHT22;3219;51.362;7.074;2023-05-10T08:53:06;16.30;99.90
6373;DHT22;3219;51.362;7.074;2023-05-10T08:55:36;16.30;99.90
6373;DHT22;3219;51.362;7.074;2023-05-10T08:58:04;16.20;99.90
6373;DHT22;3219;51.362;7.074;2023-05-10T09:02:59;16.00;99.90
6373;DHT22;3219;51.362;7.074;2023-05-10T09:07:53;16.20;99.90
6373;DHT22;3219;51.362;7.074;2023-05-10T09:10:22;16.60;99.90
6373;DHT22;3219;51.362;7.074;2023-05-10T09:12:52;16.40;99.90
6373;DHT22;3219;51.362;7.074;2023-05-10T09:15:19;16.40;99.90
6373;DHT22;3219;51.362;7.074;2023-05-10T09:17:46;16.50;99.90
6373;DHT22;3219;51.362;7.074;2023-05-10T09:20:13;16.50;99.90
6373;DHT22;3219;51.362;7.074;2023-05-10T09:22:40;16.50;99.90
6373;DHT22;3219;51.362;7.074;2023-05-10T09:25:08;16.50;99.90
6373;DHT22;3219;51.362;7.074;2023-05-10T09:27:38;16.50;99.90
6373;DHT22;3219;51.362;7.074;2023-05-10T09:30:06;16.60;99.90
6373;DHT22;3219;51.362;7.074;2023-05-10T09:32:37;16.70;99.90
6373;DHT22;3219;51.362;7.074;2023-05-10T09:35:08;16.80;99.90
6373;DHT22;3219;51.362;7.074;2023-05-10T09:37:35;16.80;99.90
6373;DHT22;3219;51.362;7.074;2023-05-10T09:40:05;16.80;99.90
6373;DHT22;3219;51.362;7.074;2023-05-10T09:42:33;16.90;99.90
6373;DHT22;3219;51.362;7.074;2023-05-10T09:45:03;16.90;99.90
6373;DHT22;3219;51.362;7.074;2023-05-10T09:47:31;16.90;99.90
6373;DHT22;3219;51.362;7.074;2023-05-10T09:49:58;16.90;99.90
6373;DHT22;3219;51.362;7.074;2023-05-10T09:52:29;16.90;99.90
6373;DHT22;3219;51.362;7.074;2023-05-10T09:54:55;16.80;99.90
6373;DHT22;3219;51.362;7.074;2023-05-10T09:57:23;16.60;99.90
6373;DHT22;3219;51.362;7.074;2023-05-10T09:59:50;16.50;99.90
6373;DHT22;3219;51.362;7.074;2023-05-10T10:02:21;16.40;99.90
6373;DHT22;3219;51.362;7.074;2023-05-10T10:04:54;16.30;99.90
6373;DHT22;3219;51.362;7.074;2023-05-10T10:07:23;16.20;99.90
6373;DHT22;3219;51.362;7.074;2023-05-10T10:09:51;16.10;99.90
6373;DHT22;3219;51.362;7.074;2023-05-10T10:12:18;16.20;99.90
6373;DHT22;3219;51.362;7.074;2023-05-10T10:14:46;16.40;99.90
6373;DHT22;3219;51.362;7.074;2023-05-10T10:17:15;16.80;99.90
6373;DHT22;3219;51.362;7.074;2023-05-10T10:19:43;17.00;99.90
6373;DHT22;3219;51.362;7.074;2023-05-10T10:22:11;17.20;99.90
6373;DHT22;3219;51.362;7.074;2023-05-10T10:24:38;17.40;99.90
6373;DHT22;3219;51.362;7.074;2023-05-10T10:27:21;17.50;99.90
6373;DHT22;3219;51.362;7.074;2023-05-10T10:29:57;17.50;99.90
6373;DHT22;3219;51.362;7.074;2023-05-10T10:32:29;17.30;99.90
6373;DHT22;3219;51.362;7.074;2023-05-10T10:34:58;17.00;99.90
6373;DHT22;3219;51.362;7.074;2023-05-10T10:37:43;17.00;99.90
6373;DHT22;3219;51.362;7.074;2023-05-10T10:40:26;16.90;99.90
6373;DHT22;3219;51.362;7.074;2023-05-10T10:42:53;17.00;99.90
6373;DHT22;3219;51.362;7.074;2023-05-10T10:45:21;17.30;99.90
6373;DHT22;3219;51.362;7.074;2023-05-10T10:47:48;17.40;99.90
6373;DHT22;3219;51.362;7.074;2023-05-10T10:50:21;17.20;99.90
6373;DHT22;3219;51.362;7.074;2023-05-10T10:52:47;16.40;99.90
6373;DHT22;3219;51.362;7.074;2023-05-10T10:55:18;17.50;99.90
6373;DHT22;3219;51.362;7.074;2023-05-10T10:57:49;17.40;99.90
6373;DHT22;3219;51.362;7.074;2023-05-10T11:00:21;17.40;99.90
6373;DHT22;3219;51.362;7.074;2023-05-10T11:02:50;17.40;99.90
6373;DHT22;3219;51.362;7.074;2023-05-10T11:05:39;17.40;99.90
6373;DHT22;3219;51.362;7.074;2023-05-10T11:08:12;17.40;99.90
6373;DHT22;3219;51.362;7.074;2023-05-10T11:10:39;17.20;99.90
6373;DHT22;3219;51.362;7.074;2023-05-10T11:13:08;17.10;99.90
6373;DHT22;3219;51.362;7.074;2023-05-10T11:15:36;17.00;99.90
6373;DHT22;3219;51.362;7.074;2023-05-10T11:18:19;16.80;99.90
6373;DHT22;3219;51.362;7.074;2023-05-10T11:20:52;16.90;99.90
6373;DHT22;3219;51.362;7.074;2023-05-10T11:23:21;16.50;99.90
6373;DHT22;3219;51.362;7.074;2023-05-10T11:25:48;16.70;99.90
6373;DHT22;3219;51.362;7.074;2023-05-10T11:28:17;16.80;99.90
6373;DHT22;3219;51.362;7.074;2023-05-10T11:30:45;16.90;99.90
6373;DHT22;3219;51.362;7.074;2023-05-10T11:33:15;16.80;99.90
6373;DHT22;3219;51.362;7.074;2023-05-10T11:35:42;17.00;99.90
6373;DHT22;3219;51.362;7.074;2023-05-10T11:38:11;17.00;99.90
6373;DHT22;3219;51.362;7.074;2023-05-10T11:40:39;17.10;99.90
6373;DHT22;3219;51.362;7.074;2023-05-10T11:43:09;17.10;99.90
6373;DHT22;3219;51.362;7.074;2023-05-10T11:45:37;17.20;99.90
6373;DHT22;3219;51.362;7.074;2023-05-10T11:48:04;17.20;99.90
6373;DHT22;3219;51.362;7.074;2023-05-10T11:50:31;17.60;99.90
6373;DHT22;3219;51.362;7.074;2023-05-10T11:52:58;17.40;99.90
6373;DHT22;3219;51.362;7.074;2023-05-10T11:55:26;17.50;99.90
6373;DHT22;3219;51.362;7.074;2023-05-10T11:57:59;17.50;99.90
6373;DHT22;3219;51.362;7.074;2023-05-10T12:07:49;17.50;99.90
6373;DHT22;3219;51.362;7.074;2023-05-10T12:10:17;17.30;99.90
6373;DHT22;3219;51.362;7.074;2023-05-10T12:12:52;17.40;99.90
6373;DHT22;3219;51.362;7.074;2023-05-10T12:15:21;17.40;99.90
6373;DHT22;3219;51.362;7.074;2023-05-10T12:17:48;17.40;99.90
6373;DHT22;3219;51.362;7.074;2023-05-10T12:20:16;17.30;99.90
6373;DHT22;3219;51.362;7.074;2023-05-10T12:22:46;17.30;99.90
6373;DHT22;3219;51.362;7.074;2023-05-10T12:25:13;17.70;99.90
6373;DHT22;3219;51.362;7.074;2023-05-10T12:27:41;17.50;99.90
6373;DHT22;3219;51.362;7.074;2023-05-10T12:32:39;17.30;99.90
6373;DHT22;3219;51.362;7.074;2023-05-10T12:35:08;17.00;99.90
6373;DHT22;3219;51.362;7.074;2023-05-10T12:40:08;16.80;99.90
6373;DHT22;3219;51.362;7.074;2023-05-10T12:42:38;16.70;99.90
6373;DHT22;3219;51.362;7.074;2023-05-10T12:45:10;16.60;99.90
6373;DHT22;3219;51.362;7.074;2023-05-10T12:47:39;16.70;99.90
6373;DHT22;3219;51.362;7.074;2023-05-10T12:50:08;16.70;99.90
6373;DHT22;3219;51.362;7.074;2023-05-10T12:52:35;16.80;99.90
6373;DHT22;3219;51.362;7.074;2023-05-10T12:55:04;17.00;99.90
6373;DHT22;3219;51.362;7.074;2023-05-10T12:59:58;17.30;99.90
6373;DHT22;3219;51.362;7.074;2023-05-10T13:02:27;17.60;99.90
6373;DHT22;3219;51.362;7.074;2023-05-10T13:04:53;17.80;99.90
6373;DHT22;3219;51.362;7.074;2023-05-10T13:07:20;17.90;99.90
6373;DHT22;3219;51.362;7.074;2023-05-10T13:09:47;18.10;99.90
6373;DHT22;3219;51.362;7.074;2023-05-10T13:12:14;18.20;99.90
6373;DHT22;3219;51.362;7.074;2023-05-10T13:14:40;18.20;99.90
6373;DHT22;3219;51.362;7.074;2023-05-10T13:17:07;18.20;99.90
6373;DHT22;3219;51.362;7.074;2023-05-10T13:19:35;18.30;99.90
6373;DHT22;3219;51.362;7.074;2023-05-10T13:22:03;18.40;99.90
6373;DHT22;3219;51.362;7.074;2023-05-10T13:24:29;18.40;99.90
6373;DHT22;3219;51.362;7.074;2023-05-10T13:26:56;18.30;99.90
6373;DHT22;3219;51.362;7.074;2023-05-10T13:29:23;18.30;99.90
6373;DHT22;3219;51.362;7.074;2023-05-10T13:31:50;18.30;99.90
6373;DHT22;3219;51.362;7.074;2023-05-10T13:34:16;18.30;99.90
6373;DHT22;3219;51.362;7.074;2023-05-10T13:36:47;18.40;99.90
6373;DHT22;3219;51.362;7.074;2023-05-10T13:39:14;18.40;99.90
6373;DHT22;3219;51.362;7.074;2023-05-10T13:41:41;18.40;99.90
6373;DHT22;3219;51.362;7.074;2023-05-10T13:44:08;18.40;99.90
6373;DHT22;3219;51.362;7.074;2023-05-10T13:46:34;18.40;99.90
6373;DHT22;3219;51.362;7.074;2023-05-10T13:51:29;18.50;99.90
6373;DHT22;3219;51.362;7.074;2023-05-10T13:53:58;18.50;99.90
6373;DHT22;3219;51.362;7.074;2023-05-10T13:58:53;18.40;99.90
6373;DHT22;3219;51.362;7.074;2023-05-10T14:01:20;18.40;99.90
6373;DHT22;3219;51.362;7.074;2023-05-10T14:03:46;18.40;99.90
6373;DHT22;3219;51.362;7.074;2023-05-10T14:06:13;18.40;99.90
6373;DHT22;3219;51.362;7.074;2023-05-10T14:08:40;18.10;99.90
6373;DHT22;3219;51.362;7.074;2023-05-10T14:11:08;18.40;99.90
6373;DHT22;3219;51.362;7.074;2023-05-10T14:13:35;18.40;99.90
6373;DHT22;3219;51.362;7.074;2023-05-10T14:16:04;18.00;99.90
6373;DHT22;3219;51.362;7.074;2023-05-10T14:18:31;18.40;99.90
6373;DHT22;3219;51.362;7.074;2023-05-10T14:20:57;18.40;99.90
6373;DHT22;3219;51.362;7.074;2023-05-10T14:23:25;18.40;99.90
6373;DHT22;3219;51.362;7.074;2023-05-10T14:25:54;18.30;99.90
6373;DHT22;3219;51.362;7.074;2023-05-10T14:40:46;18.40;99.90
6373;DHT22;3219;51.362;7.074;2023-05-10T14:48:14;18.60;99.90
6373;DHT22;3219;51.362;7.074;2023-05-10T14:50:45;18.70;99.90
6373;DHT22;3219;51.362;7.074;2023-05-10T14:53:12;18.80;99.90
6373;DHT22;3219;51.362;7.074;2023-05-10T15:05:31;19.10;99.90
6373;DHT22;3219;51.362;7.074;2023-05-10T15:07:57;19.10;99.90
6373;DHT22;3219;51.362;7.074;2023-05-10T15:10:24;19.00;99.90
6373;DHT22;3219;51.362;7.074;2023-05-10T15:12:51;19.10;99.90
6373;DHT22;3219;51.362;7.074;2023-05-10T15:15:17;19.10;99.90
6373;DHT22;3219;51.362;7.074;2023-05-10T15:17:44;19.10;99.90
6373;DHT22;3219;51.362;7.074;2023-05-10T15:20:11;19.00;99.90
6373;DHT22;3219;51.362;7.074;2023-05-10T15:22:39;19.10;99.90
6373;DHT22;3219;51.362;7.074;2023-05-10T15:25:07;19.00;99.90
6373;DHT22;3219;51.362;7.074;2023-05-10T15:27:35;19.00;99.90
6373;DHT22;3219;51.362;7.074;2023-05-10T15:30:02;19.00;99.90
6373;DHT22;3219;51.362;7.074;2023-05-10T15:32:28;19.00;99.90
6373;DHT22;3219;51.362;7.074;2023-05-10T15:34:55;18.90;99.90
6373;DHT22;3219;51.362;7.074;2023-05-10T15:37:22;18.80;99.90
6373;DHT22;3219;51.362;7.074;2023-05-10T15:39:51;18.90;99.90
6373;DHT22;3219;51.362;7.074;2023-05-10T15:42:17;18.90;99.90
6373;DHT22;3219;51.362;7.074;2023-05-10T15:44:44;18.80;99.90
6373;DHT22;3219;51.362;7.074;2023-05-10T15:47:15;18.80;99.90
6373;DHT22;3219;51.362;7.074;2023-05-10T15:49:42;18.80;99.90
6373;DHT22;3219;51.362;7.074;2023-05-10T15:52:09;18.80;99.90
6373;DHT22;3219;51.362;7.074;2023-05-10T15:54:35;18.80;99.90
6373;DHT22;3219;51.362;7.074;2023-05-10T15:57:03;18.70;99.90
6373;DHT22;3219;51.362;7.074;2023-05-10T15:59:31;18.70;99.90
6373;DHT22;3219;51.362;7.074;2023-05-10T16:01:58;18.70;99.90
6373;DHT22;3219;51.362;7.074;2023-05-10T16:04:25;18.70;99.90
6373;DHT22;3219;51.362;7.074;2023-05-10T16:06:52;18.60;99.90
6373;DHT22;3219;51.362;7.074;2023-05-10T16:09:18;18.60;99.90
6373;DHT22;3219;51.362;7.074;2023-05-10T16:11:46;18.50;99.90
6373;DHT22;3219;51.362;7.074;2023-05-10T16:14:14;18.40;99.90
6373;DHT22;3219;51.362;7.074;2023-05-10T16:16:41;18.30;99.90
6373;DHT22;3219;51.362;7.074;2023-05-10T16:19:08;18.10;99.90
6373;DHT22;3219;51.362;7.074;2023-05-10T16:21:35;18.00;99.90
6373;DHT22;3219;51.362;7.074;2023-05-10T16:24:02;17.90;99.90
6373;DHT22;3219;51.362;7.074;2023-05-10T16:26:30;17.70;99.90
6373;DHT22;3219;51.362;7.074;2023-05-10T16:28:57;17.60;99.90
6373;DHT22;3219;51.362;7.074;2023-05-10T16:31:25;17.50;99.90
6373;DHT22;3219;51.362;7.074;2023-05-10T16:33:51;17.50;99.90
6373;DHT22;3219;51.362;7.074;2023-05-10T16:36:18;17.40;99.90
6373;DHT22;3219;51.362;7.074;2023-05-10T16:38:45;17.30;99.90
6373;DHT22;3219;51.362;7.074;2023-05-10T16:41:12;17.30;99.90
6373;DHT22;3219;51.362;7.074;2023-05-10T16:43:38;17.20;99.90
6373;DHT22;3219;51.362;7.074;2023-05-10T16:46:09;17.10;99.90
6373;DHT22;3219;51.362;7.074;2023-05-10T16:48:37;17.00;99.90
6373;DHT22;3219;51.362;7.074;2023-05-10T16:51:04;16.90;99.90
6373;DHT22;3219;51.362;7.074;2023-05-10T16:53:30;16.80;99.90
6373;DHT22;3219;51.362;7.074;2023-05-10T16:55:57;16.60;99.90
6373;DHT22;3219;51.362;7.074;2023-05-10T16:58:24;16.50;99.90
6373;DHT22;3219;51.362;7.074;2023-05-10T17:00:51;16.40;99.90
6373;DHT22;3219;51.362;7.074;2023-05-10T17:03:18;16.20;99.90
6373;DHT22;3219;51.362;7.074;2023-05-10T17:05:46;16.00;99.90
6373;DHT22;3219;51.362;7.074;2023-05-10T17:08:12;15.90;99.90
6373;DHT22;3219;51.362;7.074;2023-05-10T17:10:39;15.90;99.90
6373;DHT22;3219;51.362;7.074;2023-05-10T17:13:06;15.80;99.90
6373;DHT22;3219;51.362;7.074;2023-05-10T17:15:34;15.80;99.90
6373;DHT22;3219;51.362;7.074;2023-05-10T17:18:01;15.80;99.90
6373;DHT22;3219;51.362;7.074;2023-05-10T17:20:28;15.80;99.90
6373;DHT22;3219;51.362;7.074;2023-05-10T17:22:56;15.70;99.90
6373;DHT22;3219;51.362;7.074;2023-05-10T17:25:23;15.60;99.90
6373;DHT22;3219;51.362;7.074;2023-05-10T17:27:50;15.60;99.90
6373;DHT22;3219;51.362;7.074;2023-05-10T17:30:17;15.50;99.90
6373;DHT22;3219;51.362;7.074;2023-05-10T17:32:50;15.50;99.90
6373;DHT22;3219;51.362;7.074;2023-05-10T17:35:18;15.50;99.90
6373;DHT22;3219;51.362;7.074;2023-05-10T17:37:45;15.40;99.90
6373;DHT22;3219;51.362;7.074;2023-05-10T17:40:14;15.40;99.90
6373;DHT22;3219;51.362;7.074;2023-05-10T17:42:41;15.30;99.90
6373;DHT22;3219;51.362;7.074;2023-05-10T17:45:09;15.30;99.90
6373;DHT22;3219;51.362;7.074;2023-05-10T17:47:36;15.30;99.90
6373;DHT22;3219;51.362;7.074;2023-05-10T17:50:03;15.20;99.90
6373;DHT22;3219;51.362;7.074;2023-05-10T17:52:30;15.20;99.90
6373;DHT22;3219;51.362;7.074;2023-05-10T17:54:57;15.20;99.90
6373;DHT22;3219;51.362;7.074;2023-05-10T17:57:25;15.10;99.90
6373;DHT22;3219;51.362;7.074;2023-05-10T17:59:52;15.10;99.90
6373;DHT22;3219;51.362;7.074;2023-05-10T18:02:19;15.00;99.90
6373;DHT22;3219;51.362;7.074;2023-05-10T18:04:46;15.00;99.90
6373;DHT22;3219;51.362;7.074;2023-05-10T18:07:13;15.00;99.90
6373;DHT22;3219;51.362;7.074;2023-05-10T18:09:40;14.90;99.90